LBSF

Sofia Airport

Sofia, Bulgaria
TAF LBSF 132300Z 1400/1424 11008KT 9999 SCT030 OVC050 BECMG 1400/1402 7000 SCT020 OVC030 TEMPO 1402/1408 3000 SN BKN008 OVC020 TEMPO 1408/1411 5000 RASN SCT010 BKN015 OVC030 BECMG 1411/1412 11016KT PROB30 TEMPO 1412/1415 RA BKN020 OVC030
Issued Valid From Valid To
Dec-13 @ 23:00 UTC
(4 hours ago)
Dec-14 @ 00:00 UTC
(3 hours ago)
Dec-15 @ 00:00 UTC
(in 21 hours)
Dec-14 @ 00:00 to Dec-15 @ 00:00
TAF LBSF 132300Z 1400/1424 11008KT 9999 SCT030 OVC050
Wind Visibility Clouds
110° at 8 knots 10,000+ meters
  • Scattered at 3,000' AGL
  • Overcast at 5,000' AGL
Becoming Dec-14 @ 00:00 to Dec-14 @ 11:00
BECMG 1400/1402 7000 SCT020 OVC030
Wind Visibility Clouds
110° at 8 knots 7,001 meters
  • Scattered at 2,000' AGL
  • Overcast at 3,000' AGL
Temporary Dec-14 @ 02:00 to Dec-14 @ 08:00
TEMPO 1402/1408 3000 SN BKN008 OVC020
Visibility Clouds Conditions
2,993 meters
  • Broken at 800' AGL
  • Overcast at 2,000' AGL
  • Snow
Temporary Dec-14 @ 08:00 to Dec-14 @ 11:00
TEMPO 1408/1411 5000 RASN SCT010 BKN015 OVC030
Visibility Clouds Conditions
5,005 meters
  • Scattered at 1,000' AGL
  • Broken at 1,500' AGL
  • Overcast at 3,000' AGL
  • Rain
  • Snow
Becoming Dec-14 @ 11:00 to Dec-15 @ 00:00
BECMG 1411/1412 11016KT
Wind Visibility Clouds
110° at 16 knots 7,001 meters
  • Scattered at 2,000' AGL
  • Overcast at 3,000' AGL
Temporary  (Probability 30%) Dec-14 @ 12:00 to Dec-14 @ 15:00
PROB30 TEMPO 1412/1415 RA BKN020 OVC030
Clouds Conditions
  • Broken at 2,000' AGL
  • Overcast at 3,000' AGL
  • Rain
TAF LBSF 132300Z 1400/1424 11008KT 9999 SCT030 OVC050 BECMG 1400/1402 7000 SCT020 OVC030 TEMPO 1402/1408 3000 SN BKN008 OVC020 TEMPO 1408/1411 5000 RASN SCT010 BKN015 OVC030 BECMG 1411/1412 11016KT PROB30 TEMPO 1412/1415 RA BKN020 OVC030
Issued Dec-13 @ 23:00 UTC
(4 hours ago)
Valid From Dec-14 @ 00:00 UTC
(3 hours ago)
Valid To Dec-15 @ 00:00 UTC
(in 21 hours)
Dec-14 @ 00:00 - Dec-15 @ 00:00
Wind Visibility
110° at 8 knots 10,000+ meters
Clouds
  • Scattered at 3,000' AGL
  • Overcast at 5,000' AGL
Becoming Dec-14 @ 00:00 - Dec-14 @ 11:00
Wind Visibility
110° at 8 knots 7,001 meters
Clouds
  • Scattered at 2,000' AGL
  • Overcast at 3,000' AGL
Temporary Dec-14 @ 02:00 - Dec-14 @ 08:00
Clouds
  • Broken at 800' AGL
  • Overcast at 2,000' AGL
Conditions
  • Snow
Temporary Dec-14 @ 08:00 - Dec-14 @ 11:00
Clouds
  • Scattered at 1,000' AGL
  • Broken at 1,500' AGL
  • Overcast at 3,000' AGL
Conditions
  • Rain
  • Snow
Becoming Dec-14 @ 11:00 - Dec-15 @ 00:00
Wind Visibility
110° at 16 knots 7,001 meters
Clouds
  • Scattered at 2,000' AGL
  • Overcast at 3,000' AGL
Probability 30% Temporary Dec-14 @ 12:00 - Dec-14 @ 15:00
Clouds
  • Broken at 2,000' AGL
  • Overcast at 3,000' AGL
Conditions
  • Rain